createdAt,value
2024-02-19T00:00:24.885Z,41.64
2024-02-19T00:00:58.568Z,41.78
2024-02-19T00:01:30.204Z,41.87
2024-02-19T00:02:01.719Z,41.81
2024-02-19T00:02:33.222Z,41.84
2024-02-19T00:03:04.663Z,41.77
2024-02-19T00:03:36.147Z,41.77
2024-02-19T00:04:07.701Z,41.77
2024-02-19T00:04:39.316Z,41.91
2024-02-19T00:05:10.882Z,41.88
2024-02-19T00:05:42.395Z,41.75
2024-02-19T00:06:13.921Z,41.63
2024-02-19T00:06:45.419Z,41.83
2024-02-19T00:07:17.018Z,41.95
2024-02-19T00:07:48.677Z,41.75
2024-02-19T00:08:20.302Z,41.83
2024-02-19T00:08:51.819Z,41.84
2024-02-19T00:09:23.391Z,41.82
2024-02-19T00:09:54.880Z,41.81
2024-02-19T00:10:26.752Z,41.79
2024-02-19T00:10:58.356Z,41.88
2024-02-19T00:11:29.910Z,41.79
2024-02-19T00:12:01.391Z,41.71
2024-02-19T00:12:32.973Z,41.81
2024-02-19T00:13:04.531Z,41.91
2024-02-19T00:13:36.016Z,41.96
2024-02-19T00:14:07.545Z,41.74
2024-02-19T00:14:39.096Z,41.97
2024-02-19T00:15:10.672Z,41.87
2024-02-19T00:15:42.191Z,41.78
2024-02-19T00:16:13.848Z,41.81
2024-02-19T00:16:45.401Z,41.79
2024-02-19T00:17:16.848Z,41.91
2024-02-19T00:17:48.379Z,41.74
2024-02-19T00:18:19.933Z,41.89
2024-02-19T00:18:51.503Z,41.89
2024-02-19T00:19:23.121Z,41.71
2024-02-19T00:19:54.792Z,41.85
2024-02-19T00:20:26.266Z,41.86
2024-02-19T00:20:57.719Z,41.82
2024-02-19T00:21:29.207Z,41.80
2024-02-19T00:22:00.722Z,41.79
2024-02-19T00:22:32.196Z,41.84
2024-02-19T00:23:03.693Z,41.83
2024-02-19T00:23:35.218Z,41.86
2024-02-19T00:24:06.799Z,41.82
2024-02-19T00:24:38.382Z,41.82
2024-02-19T00:25:09.986Z,41.70
2024-02-19T00:25:41.485Z,41.71
2024-02-19T00:26:12.914Z,41.84
2024-02-19T00:26:46.952Z,41.76
2024-02-19T00:27:18.376Z,41.88
2024-02-19T00:27:49.886Z,41.68
2024-02-19T00:28:21.432Z,41.95
2024-02-19T00:28:52.985Z,41.85
2024-02-19T00:29:24.529Z,41.93
2024-02-19T00:29:56.186Z,41.79
2024-02-19T00:30:27.632Z,41.86
2024-02-19T00:30:59.127Z,41.59
2024-02-19T00:31:30.565Z,41.79
2024-02-19T00:32:02.035Z,41.72
2024-02-19T00:32:33.631Z,41.73
2024-02-19T00:33:05.193Z,41.64
2024-02-19T00:33:36.893Z,41.73
2024-02-19T00:34:09.911Z,41.58
2024-02-19T00:34:41.524Z,41.67
2024-02-19T00:35:13.004Z,41.77
2024-02-19T00:35:44.493Z,41.68
2024-02-19T00:36:15.943Z,41.67
2024-02-19T00:36:47.601Z,41.77
2024-02-19T00:37:19.134Z,41.66
2024-02-19T00:37:50.722Z,41.93
2024-02-19T00:38:22.286Z,41.75
2024-02-19T00:38:53.700Z,41.54
2024-02-19T00:39:25.197Z,41.50
2024-02-19T00:39:56.823Z,41.64
2024-02-19T00:40:28.276Z,41.63
2024-02-19T00:40:59.766Z,41.70
2024-02-19T00:41:31.194Z,41.72
2024-02-19T00:42:02.627Z,41.81
2024-02-19T00:42:34.202Z,41.76
2024-02-19T00:43:05.755Z,41.80
2024-02-19T00:43:37.179Z,41.71
2024-02-19T00:44:08.661Z,41.70
2024-02-19T00:44:40.182Z,41.66
2024-02-19T00:45:11.662Z,41.50
2024-02-19T00:45:43.190Z,41.75
2024-02-19T00:46:14.728Z,41.82
2024-02-19T00:46:46.193Z,41.55
2024-02-19T00:47:17.635Z,41.78
2024-02-19T00:47:49.222Z,41.65
2024-02-19T00:48:20.721Z,41.62
2024-02-19T00:48:52.324Z,41.68
2024-02-19T00:49:23.962Z,41.76
2024-02-19T00:49:55.540Z,41.75
2024-02-19T00:50:27.035Z,41.64
2024-02-19T00:50:58.500Z,41.65
2024-02-19T00:51:29.933Z,41.63
2024-02-19T00:52:01.442Z,41.63
2024-02-19T00:52:32.891Z,41.67
2024-02-19T00:53:04.344Z,41.77
2024-02-19T00:53:35.886Z,41.61
2024-02-19T00:54:07.364Z,41.72
2024-02-19T00:54:38.847Z,41.74
2024-02-19T00:55:10.452Z,41.65
2024-02-19T00:55:42.137Z,41.72
2024-02-19T00:56:13.709Z,41.71
2024-02-19T00:56:45.144Z,41.68
2024-02-19T00:57:16.721Z,41.67
2024-02-19T00:57:48.285Z,41.51
2024-02-19T00:58:19.828Z,41.69
2024-02-19T00:58:51.454Z,41.56
2024-02-19T00:59:22.916Z,41.50
2024-02-19T00:59:54.357Z,41.53
2024-02-19T01:00:25.839Z,41.43
2024-02-19T01:00:57.303Z,41.55
2024-02-19T01:01:28.917Z,41.63
2024-02-19T01:02:00.622Z,41.56
2024-02-19T01:02:32.129Z,41.57
2024-02-19T01:03:03.569Z,41.66
2024-02-19T01:03:35.126Z,41.57
2024-02-19T01:04:06.745Z,41.60
2024-02-19T01:04:38.373Z,41.58
2024-02-19T01:05:09.966Z,41.53
2024-02-19T01:05:41.615Z,41.51
2024-02-19T01:06:13.270Z,41.58
2024-02-19T01:06:44.823Z,41.59
2024-02-19T01:07:16.383Z,41.46
2024-02-19T01:07:47.837Z,41.52
2024-02-19T01:08:19.279Z,41.54
2024-02-19T01:08:50.712Z,41.63
2024-02-19T01:09:22.162Z,41.63
2024-02-19T01:09:53.634Z,41.67
2024-02-19T01:10:25.206Z,41.64
2024-02-19T01:10:56.749Z,41.53
2024-02-19T01:11:28.312Z,41.94
2024-02-19T01:11:59.779Z,41.69
2024-02-19T01:12:31.217Z,41.72
2024-02-19T01:13:02.669Z,41.64
2024-02-19T01:13:34.193Z,41.83
2024-02-19T01:14:05.647Z,41.74
2024-02-19T01:14:37.151Z,41.69
2024-02-19T01:15:08.644Z,41.70
2024-02-19T01:15:40.298Z,41.63
2024-02-19T01:16:11.809Z,41.60
2024-02-19T01:16:43.354Z,41.60
2024-02-19T01:17:14.805Z,41.60
2024-02-19T01:17:46.278Z,41.70
2024-02-19T01:18:17.795Z,41.58
2024-02-19T01:18:49.398Z,41.66
2024-02-19T01:19:21.044Z,41.61
2024-02-19T01:19:52.625Z,41.68
2024-02-19T01:20:26.051Z,41.50
2024-02-19T01:20:57.475Z,41.67
2024-02-19T01:21:29.001Z,41.67
2024-02-19T01:22:00.552Z,41.55
2024-02-19T01:22:31.985Z,41.60
2024-02-19T01:23:03.434Z,41.40
2024-02-19T01:23:34.925Z,41.40
2024-02-19T01:24:06.382Z,41.44
2024-02-19T01:24:37.912Z,41.44
2024-02-19T01:25:09.470Z,41.43
2024-02-19T01:25:40.943Z,41.45
2024-02-19T01:26:12.362Z,41.31
2024-02-19T01:26:43.853Z,41.33
2024-02-19T01:27:15.324Z,41.35
2024-02-19T01:27:46.828Z,41.32
2024-02-19T01:28:18.399Z,41.48
2024-02-19T01:28:49.929Z,41.40
2024-02-19T01:29:21.440Z,41.42
2024-02-19T01:29:52.972Z,41.39
2024-02-19T01:30:24.499Z,41.31
2024-02-19T01:30:56.014Z,41.40
2024-02-19T01:31:27.522Z,41.46
2024-02-19T01:31:59.033Z,41.49
2024-02-19T01:32:30.544Z,41.37
2024-02-19T01:33:02.123Z,41.39
2024-02-19T01:33:33.672Z,41.41
2024-02-19T01:34:05.917Z,41.48
2024-02-19T01:34:37.614Z,41.45
2024-02-19T01:35:09.378Z,41.25
2024-02-19T01:35:40.981Z,41.55
2024-02-19T01:36:12.437Z,41.37
2024-02-19T01:36:43.898Z,41.34
2024-02-19T01:37:15.528Z,41.27
2024-02-19T01:37:46.995Z,41.30
2024-02-19T01:38:18.505Z,41.42
2024-02-19T01:38:50.050Z,41.26
2024-02-19T01:39:21.658Z,41.46
2024-02-19T01:39:53.136Z,41.43
2024-02-19T01:40:24.707Z,41.37
2024-02-19T01:40:56.154Z,41.32
2024-02-19T01:41:27.614Z,41.34
2024-02-19T01:41:59.041Z,41.40
2024-02-19T01:42:30.497Z,41.42
2024-02-19T01:43:02.122Z,41.41
2024-02-19T01:43:33.680Z,41.30
2024-02-19T01:44:05.179Z,41.36
2024-02-19T01:44:36.734Z,41.27
2024-02-19T01:45:08.341Z,41.29
2024-02-19T01:45:39.988Z,41.32
2024-02-19T01:46:11.528Z,41.20
2024-02-19T01:46:42.990Z,41.11
2024-02-19T01:47:14.440Z,41.25
2024-02-19T01:47:45.944Z,41.27
2024-02-19T01:48:17.473Z,41.34
2024-02-19T01:48:49.123Z,41.25
2024-02-19T01:49:20.829Z,41.22
2024-02-19T01:49:52.480Z,41.26
2024-02-19T01:50:24.000Z,41.24
2024-02-19T01:50:55.495Z,41.39
2024-02-19T01:51:26.983Z,41.31
2024-02-19T01:51:58.580Z,41.26
2024-02-19T01:52:30.100Z,41.17
2024-02-19T01:53:01.594Z,41.21
2024-02-19T01:53:33.213Z,41.28
2024-02-19T01:54:04.789Z,41.02
2024-02-19T01:54:36.378Z,41.18
2024-02-19T01:55:07.916Z,41.36
2024-02-19T01:55:39.426Z,41.15
2024-02-19T01:56:10.988Z,41.11
2024-02-19T01:56:42.484Z,41.11
2024-02-19T01:57:13.943Z,41.03
2024-02-19T01:57:45.437Z,41.09
2024-02-19T01:58:17.031Z,41.38
2024-02-19T01:58:48.551Z,41.14
2024-02-19T01:59:19.999Z,41.23
2024-02-19T01:59:51.512Z,41.25
2024-02-19T02:00:22.957Z,41.14
2024-02-19T02:00:54.532Z,41.19
2024-02-19T02:01:26.426Z,41.12
2024-02-19T02:01:58.020Z,41.18
2024-02-19T02:02:29.558Z,41.12
2024-02-19T02:03:01.064Z,41.17
2024-02-19T02:03:32.708Z,41.26
2024-02-19T02:04:04.145Z,41.08
2024-02-19T02:04:35.634Z,41.16
2024-02-19T02:05:07.114Z,41.30
2024-02-19T02:05:38.641Z,41.16
2024-02-19T02:06:10.109Z,41.18
2024-02-19T02:06:41.766Z,41.04
2024-02-19T02:07:13.362Z,41.14
2024-02-19T02:07:44.831Z,41.10
2024-02-19T02:08:16.271Z,41.17
2024-02-19T02:08:47.775Z,41.01
2024-02-19T02:09:19.245Z,41.15
2024-02-19T02:09:50.776Z,41.12
2024-02-19T02:10:22.363Z,41.18
2024-02-19T02:10:53.865Z,40.97
2024-02-19T02:11:25.411Z,41.19
2024-02-19T02:11:56.885Z,41.10
2024-02-19T02:12:28.319Z,41.01
2024-02-19T02:12:59.811Z,41.08
2024-02-19T02:13:31.283Z,41.10
2024-02-19T02:14:02.762Z,40.88
2024-02-19T02:14:34.389Z,41.09
2024-02-19T02:15:05.990Z,41.15
2024-02-19T02:15:37.485Z,41.04
2024-02-19T02:16:09.016Z,41.04
2024-02-19T02:16:40.512Z,41.02
2024-02-19T02:17:12.041Z,41.14
2024-02-19T02:17:43.641Z,40.99
2024-02-19T02:18:15.145Z,41.01
2024-02-19T02:18:46.686Z,40.92
2024-02-19T02:19:18.365Z,40.96
2024-02-19T02:19:49.953Z,41.11
2024-02-19T02:20:21.521Z,41.13
2024-02-19T02:20:53.049Z,41.12
2024-02-19T02:21:24.627Z,41.10
2024-02-19T02:21:56.264Z,41.10
2024-02-19T02:22:27.735Z,40.97
2024-02-19T02:22:59.196Z,40.99
2024-02-19T02:23:30.648Z,41.14
2024-02-19T02:24:02.109Z,41.07
2024-02-19T02:24:33.595Z,41.06
2024-02-19T02:25:05.156Z,41.10
2024-02-19T02:25:36.676Z,41.16
2024-02-19T02:26:08.128Z,41.10
2024-02-19T02:26:39.582Z,41.07
2024-02-19T02:27:11.064Z,41.14
2024-02-19T02:27:42.621Z,40.96
2024-02-19T02:28:14.354Z,41.07
2024-02-19T02:28:46.029Z,41.04
2024-02-19T02:29:17.563Z,41.18
2024-02-19T02:29:49.005Z,40.96
2024-02-19T02:30:20.492Z,41.03
2024-02-19T02:30:51.997Z,40.93
2024-02-19T02:31:23.662Z,41.14
2024-02-19T02:31:55.083Z,41.04
2024-02-19T02:32:29.252Z,41.03
2024-02-19T02:33:00.915Z,40.90
2024-02-19T02:33:32.593Z,40.94
2024-02-19T02:34:04.195Z,40.95
2024-02-19T02:34:35.945Z,41.01
2024-02-19T02:35:07.622Z,41.05
2024-02-19T02:35:39.285Z,41.00
2024-02-19T02:36:10.808Z,41.05
2024-02-19T02:36:42.328Z,40.92
2024-02-19T02:37:14.006Z,40.91
2024-02-19T02:37:45.590Z,40.85
2024-02-19T02:38:17.029Z,40.99
2024-02-19T02:38:48.476Z,40.76
2024-02-19T02:39:20.028Z,40.94
2024-02-19T02:39:51.587Z,41.10
2024-02-19T02:40:23.228Z,40.88
2024-02-19T02:40:54.770Z,40.97
2024-02-19T02:41:26.205Z,40.93
2024-02-19T02:41:57.671Z,40.97
2024-02-19T02:42:29.082Z,40.87
2024-02-19T02:43:00.565Z,41.05
2024-02-19T02:43:32.046Z,41.01
2024-02-19T02:44:03.572Z,41.06
2024-02-19T02:44:35.109Z,41.11
2024-02-19T02:45:06.563Z,40.96
2024-02-19T02:45:38.080Z,41.20
2024-02-19T02:46:09.610Z,40.95
2024-02-19T02:46:41.065Z,40.94
2024-02-19T02:47:12.570Z,41.06
2024-02-19T02:47:44.027Z,40.98
2024-02-19T02:48:15.635Z,40.82
2024-02-19T02:48:47.270Z,41.02
2024-02-19T02:49:18.959Z,41.02
2024-02-19T02:49:50.562Z,40.91
2024-02-19T02:50:24.807Z,41.09
2024-02-19T02:50:56.248Z,41.06
2024-02-19T02:51:27.750Z,41.04
2024-02-19T02:51:59.210Z,40.96
2024-02-19T02:52:30.728Z,41.01
2024-02-19T02:53:02.242Z,41.14
2024-02-19T02:53:33.874Z,40.99
2024-02-19T02:54:05.312Z,41.08
2024-02-19T02:54:36.957Z,41.00
2024-02-19T02:55:08.457Z,40.85
2024-02-19T02:55:39.998Z,40.96
2024-02-19T02:56:11.406Z,40.99
2024-02-19T02:56:42.897Z,40.92
2024-02-19T02:57:14.338Z,41.07
2024-02-19T02:57:45.832Z,41.05
2024-02-19T02:58:17.323Z,40.99
2024-02-19T02:58:48.893Z,40.93
2024-02-19T02:59:23.320Z,40.89
2024-02-19T02:59:54.801Z,40.94
2024-02-19T03:00:26.285Z,40.98
2024-02-19T03:00:57.817Z,41.00
2024-02-19T03:01:29.423Z,40.85
2024-02-19T03:02:01.027Z,41.01
2024-02-19T03:02:32.628Z,40.96
2024-02-19T03:03:04.173Z,40.93
2024-02-19T03:03:35.705Z,40.96
2024-02-19T03:04:07.301Z,40.96
2024-02-19T03:04:39.070Z,41.04
2024-02-19T03:05:10.647Z,40.95
2024-02-19T03:05:42.196Z,40.94
2024-02-19T03:06:13.656Z,41.06
2024-02-19T03:06:45.192Z,41.03
2024-02-19T03:07:17.004Z,40.95
2024-02-19T03:07:48.671Z,40.87
2024-02-19T03:08:20.206Z,40.98
2024-02-19T03:08:51.694Z,41.06
2024-02-19T03:09:23.239Z,40.97
2024-02-19T03:09:54.726Z,40.87
2024-02-19T03:10:26.259Z,40.98
2024-02-19T03:10:57.802Z,41.08
2024-02-19T03:11:29.303Z,40.98
2024-02-19T03:12:00.807Z,40.97
2024-02-19T03:12:32.190Z,40.96
2024-02-19T03:13:03.783Z,40.95
2024-02-19T03:13:35.263Z,40.96
2024-02-19T03:14:06.697Z,40.98
2024-02-19T03:14:38.116Z,41.05
2024-02-19T03:15:09.623Z,40.77
2024-02-19T03:15:41.097Z,40.83
2024-02-19T03:16:12.609Z,40.87
2024-02-19T03:16:44.114Z,40.90
2024-02-19T03:17:15.677Z,40.83
2024-02-19T03:17:47.136Z,40.84
2024-02-19T03:18:18.691Z,40.80
2024-02-19T03:18:50.349Z,40.95
2024-02-19T03:19:22.018Z,40.96
2024-02-19T03:19:53.641Z,40.92
2024-02-19T03:20:27.025Z,40.96
2024-02-19T03:20:58.477Z,40.97
2024-02-19T03:21:30.445Z,40.86
2024-02-19T03:22:01.977Z,40.96
2024-02-19T03:22:33.438Z,40.84
2024-02-19T03:23:04.896Z,40.90
2024-02-19T03:23:36.328Z,40.79
2024-02-19T03:24:07.785Z,40.86
2024-02-19T03:24:39.344Z,40.90
2024-02-19T03:25:10.865Z,40.98
2024-02-19T03:25:42.319Z,40.83
2024-02-19T03:26:14.040Z,40.87
2024-02-19T03:26:45.457Z,40.82
2024-02-19T03:27:16.882Z,40.89
2024-02-19T03:27:48.425Z,40.92
2024-02-19T03:28:19.998Z,40.82
2024-02-19T03:28:51.567Z,41.00
2024-02-19T03:29:23.118Z,40.86
2024-02-19T03:29:54.641Z,40.92
2024-02-19T03:30:26.152Z,41.01
2024-02-19T03:30:57.732Z,40.83
2024-02-19T03:31:29.258Z,40.90
2024-02-19T03:32:00.703Z,40.88
2024-02-19T03:32:32.248Z,40.84
2024-02-19T03:33:03.759Z,40.85
2024-02-19T03:33:35.333Z,40.85
2024-02-19T03:34:06.889Z,40.86
2024-02-19T03:34:38.578Z,40.91
2024-02-19T03:35:10.129Z,40.79
2024-02-19T03:35:41.700Z,40.94
2024-02-19T03:36:13.146Z,40.82
2024-02-19T03:36:44.655Z,40.82
2024-02-19T03:37:19.031Z,40.79
2024-02-19T03:37:50.560Z,40.91
2024-02-19T03:38:21.968Z,40.83
2024-02-19T03:38:53.442Z,40.93
2024-02-19T03:39:24.877Z,40.88
2024-02-19T03:39:59.361Z,40.77
2024-02-19T03:40:31.106Z,40.88
2024-02-19T03:41:02.534Z,41.01
2024-02-19T03:41:33.987Z,40.73
2024-02-19T03:42:05.421Z,40.87
2024-02-19T03:42:36.945Z,40.89
2024-02-19T03:43:08.464Z,40.93
2024-02-19T03:43:39.930Z,40.76
2024-02-19T03:44:11.374Z,40.85
2024-02-19T03:44:42.943Z,40.49
2024-02-19T03:45:14.429Z,40.78
2024-02-19T03:45:46.024Z,40.92
2024-02-19T03:46:17.585Z,40.80
2024-02-19T03:46:49.108Z,40.78
2024-02-19T03:47:20.548Z,40.83
2024-02-19T03:47:52.092Z,40.75
2024-02-19T03:48:23.682Z,40.75
2024-02-19T03:48:55.264Z,40.70
2024-02-19T03:49:26.887Z,40.68
2024-02-19T03:49:58.462Z,40.74
2024-02-19T03:50:29.892Z,40.81
2024-02-19T03:51:01.316Z,40.81
2024-02-19T03:51:32.774Z,40.63
2024-02-19T03:52:04.276Z,40.82
2024-02-19T03:52:35.763Z,40.77
2024-02-19T03:53:07.198Z,40.77
2024-02-19T03:53:38.707Z,40.74
2024-02-19T03:54:11.733Z,40.62
2024-02-19T03:54:44.370Z,40.85
2024-02-19T03:55:15.968Z,40.45
2024-02-19T03:55:47.531Z,40.63
2024-02-19T03:56:19.327Z,40.58
2024-02-19T03:56:50.916Z,40.62
2024-02-19T03:57:22.372Z,40.62
2024-02-19T03:57:53.886Z,40.76
2024-02-19T03:58:25.387Z,40.60
2024-02-19T03:58:56.878Z,40.67
2024-02-19T03:59:28.402Z,40.58
2024-02-19T03:59:59.842Z,40.52
2024-02-19T04:00:31.344Z,40.62
2024-02-19T04:01:04.834Z,40.56
2024-02-19T04:01:37.774Z,40.74
2024-02-19T04:02:09.410Z,40.39
2024-02-19T04:02:40.862Z,40.49
2024-02-19T04:03:12.376Z,40.51
2024-02-19T04:03:43.906Z,40.53
2024-02-19T04:04:15.501Z,40.55
2024-02-19T04:04:47.125Z,40.54
2024-02-19T04:05:18.616Z,40.60
2024-02-19T04:05:50.067Z,40.72
2024-02-19T04:06:21.757Z,40.63
2024-02-19T04:06:53.339Z,40.46
2024-02-19T04:07:24.886Z,40.80
2024-02-19T04:07:56.470Z,40.63
2024-02-19T04:08:27.942Z,40.54
2024-02-19T04:08:59.455Z,40.46
2024-02-19T04:09:30.934Z,40.60
2024-02-19T04:10:02.518Z,40.56
2024-02-19T04:10:33.980Z,40.45
2024-02-19T04:11:05.456Z,40.70
2024-02-19T04:11:36.937Z,40.63
2024-02-19T04:12:08.405Z,40.55
2024-02-19T04:12:39.965Z,40.53
2024-02-19T04:13:11.466Z,40.54
2024-02-19T04:13:42.959Z,40.53
2024-02-19T04:14:14.488Z,40.59
2024-02-19T04:14:45.902Z,40.61
2024-02-19T04:15:17.363Z,40.55
2024-02-19T04:15:48.847Z,40.28
2024-02-19T04:16:20.448Z,40.41
2024-02-19T04:16:51.942Z,40.71
2024-02-19T04:17:23.503Z,40.66
2024-02-19T04:17:55.039Z,40.51
2024-02-19T04:18:26.600Z,40.63
2024-02-19T04:18:58.356Z,40.50
2024-02-19T04:19:29.972Z,40.64
2024-02-19T04:20:01.459Z,40.50
2024-02-19T04:20:32.942Z,40.55
2024-02-19T04:21:04.454Z,40.57
2024-02-19T04:21:35.984Z,40.56
2024-02-19T04:22:07.555Z,40.46
2024-02-19T04:22:39.090Z,40.59
2024-02-19T04:23:10.571Z,40.59
2024-02-19T04:23:42.007Z,40.52
2024-02-19T04:24:13.503Z,40.67
2024-02-19T04:24:45.070Z,40.41
2024-02-19T04:25:16.603Z,40.45
2024-02-19T04:25:48.128Z,40.68
2024-02-19T04:26:19.610Z,40.55
2024-02-19T04:26:51.065Z,40.60
2024-02-19T04:27:22.532Z,40.37
2024-02-19T04:27:53.980Z,40.60
2024-02-19T04:28:25.536Z,40.64
2024-02-19T04:28:56.980Z,40.69
2024-02-19T04:29:28.420Z,40.56
2024-02-19T04:29:59.894Z,40.57
2024-02-19T04:30:31.429Z,40.59
2024-02-19T04:31:02.948Z,40.52
2024-02-19T04:31:37.329Z,40.58
2024-02-19T04:32:08.734Z,40.47
2024-02-19T04:32:40.358Z,40.67
2024-02-19T04:33:11.866Z,40.54
2024-02-19T04:33:43.569Z,40.48
2024-02-19T04:34:15.265Z,40.61
2024-02-19T04:34:46.946Z,40.48
2024-02-19T04:35:18.474Z,40.61
2024-02-19T04:35:49.968Z,40.67
2024-02-19T04:36:21.420Z,40.68
2024-02-19T04:36:52.910Z,40.60
2024-02-19T04:37:24.413Z,40.58
2024-02-19T04:37:56.006Z,40.71
2024-02-19T04:38:27.577Z,40.54
2024-02-19T04:38:59.088Z,40.52
2024-02-19T04:39:30.539Z,40.55
2024-02-19T04:40:02.032Z,40.56
2024-02-19T04:40:33.535Z,40.43
2024-02-19T04:41:05.029Z,40.47
2024-02-19T04:41:36.526Z,40.48
2024-02-19T04:42:07.990Z,40.58
2024-02-19T04:42:39.562Z,40.49
2024-02-19T04:43:11.088Z,40.59
2024-02-19T04:43:42.569Z,40.46
2024-02-19T04:44:14.073Z,40.60
2024-02-19T04:44:45.549Z,40.48
2024-02-19T04:45:17.018Z,40.55
2024-02-19T04:45:48.506Z,40.58
2024-02-19T04:46:20.184Z,40.58
2024-02-19T04:46:51.678Z,40.50
2024-02-19T04:47:23.181Z,40.51
2024-02-19T04:47:54.662Z,40.50
2024-02-19T04:48:26.173Z,40.46
2024-02-19T04:48:57.745Z,40.57
2024-02-19T04:49:29.370Z,40.46
2024-02-19T04:50:01.193Z,40.48
2024-02-19T04:50:32.851Z,40.41
2024-02-19T04:51:04.362Z,40.47
2024-02-19T04:51:35.798Z,40.46
2024-02-19T04:52:07.277Z,40.47
2024-02-19T04:52:38.750Z,40.49
2024-02-19T04:53:11.873Z,40.47
2024-02-19T04:53:44.651Z,40.35
2024-02-19T04:54:16.166Z,40.26
2024-02-19T04:54:47.751Z,40.52
2024-02-19T04:55:19.349Z,40.50
2024-02-19T04:55:50.870Z,40.45
2024-02-19T04:56:22.301Z,40.46
2024-02-19T04:56:53.750Z,40.46
2024-02-19T04:57:25.196Z,40.48
2024-02-19T04:57:56.658Z,40.39
2024-02-19T04:58:28.147Z,40.55
2024-02-19T04:58:59.713Z,40.56
2024-02-19T04:59:31.289Z,40.44
2024-02-19T05:00:02.762Z,40.39
2024-02-19T05:00:34.301Z,40.54
2024-02-19T05:01:05.849Z,40.45
2024-02-19T05:01:37.486Z,40.30
2024-02-19T05:02:09.121Z,40.40
2024-02-19T05:02:40.587Z,40.20
2024-02-19T05:03:13.601Z,40.54
2024-02-19T05:03:46.401Z,40.60
2024-02-19T05:04:17.896Z,40.41
2024-02-19T05:04:49.480Z,40.39
2024-02-19T05:05:21.075Z,40.46
2024-02-19T05:05:52.566Z,40.60
2024-02-19T05:06:24.117Z,40.48
2024-02-19T05:06:55.720Z,40.50
2024-02-19T05:07:27.279Z,40.38
2024-02-19T05:07:58.954Z,40.67
2024-02-19T05:08:30.477Z,40.35
2024-02-19T05:09:01.961Z,40.58
2024-02-19T05:09:33.443Z,40.50
2024-02-19T05:10:05.260Z,40.49
2024-02-19T05:10:36.806Z,40.44
2024-02-19T05:11:08.387Z,40.61
2024-02-19T05:11:39.922Z,40.44
2024-02-19T05:12:11.401Z,40.45
2024-02-19T05:12:42.955Z,40.46
2024-02-19T05:13:14.483Z,40.56
2024-02-19T05:13:45.978Z,40.53
2024-02-19T05:14:17.419Z,40.53
2024-02-19T05:14:49.057Z,40.48
2024-02-19T05:15:20.549Z,40.52
2024-02-19T05:15:52.114Z,40.63
2024-02-19T05:16:23.537Z,40.71
2024-02-19T05:16:55.108Z,40.41
2024-02-19T05:17:26.629Z,40.58
2024-02-19T05:17:58.341Z,40.59
2024-02-19T05:18:29.924Z,40.60
2024-02-19T05:19:01.620Z,40.53
2024-02-19T05:19:33.336Z,40.59
2024-02-19T05:20:04.820Z,40.42
2024-02-19T05:20:39.164Z,40.53
2024-02-19T05:21:10.695Z,40.61
2024-02-19T05:21:42.305Z,40.41
2024-02-19T05:22:13.954Z,40.46
2024-02-19T05:22:45.415Z,40.39
2024-02-19T05:23:16.871Z,40.38
2024-02-19T05:23:48.357Z,40.35
2024-02-19T05:24:19.833Z,40.48
2024-02-19T05:24:51.484Z,40.30
2024-02-19T05:25:22.988Z,40.44
2024-02-19T05:25:54.571Z,40.57
2024-02-19T05:26:25.986Z,40.38
2024-02-19T05:26:57.543Z,40.34
2024-02-19T05:27:29.060Z,40.54
2024-02-19T05:28:00.568Z,40.61
2024-02-19T05:28:32.036Z,40.57
2024-02-19T05:29:03.549Z,40.51
2024-02-19T05:29:34.993Z,40.32
2024-02-19T05:30:06.424Z,40.47
2024-02-19T05:30:37.959Z,40.27
2024-02-19T05:31:09.504Z,40.35
2024-02-19T05:31:41.014Z,40.30
2024-02-19T05:32:12.468Z,40.39
2024-02-19T05:32:44.000Z,40.41
2024-02-19T05:33:15.539Z,40.39
2024-02-19T05:33:47.096Z,40.46
2024-02-19T05:34:18.750Z,40.39
2024-02-19T05:34:50.208Z,40.31
2024-02-19T05:35:21.709Z,40.36
2024-02-19T05:35:53.204Z,40.52
2024-02-19T05:36:24.668Z,40.33
2024-02-19T05:36:56.193Z,40.46
2024-02-19T05:37:27.676Z,40.53
2024-02-19T05:37:59.238Z,40.47
2024-02-19T05:38:30.729Z,40.22
2024-02-19T05:39:02.208Z,40.54
2024-02-19T05:39:33.693Z,40.49
2024-02-19T05:40:05.186Z,40.38
2024-02-19T05:40:36.774Z,40.37
2024-02-19T05:41:08.480Z,40.53
2024-02-19T05:41:39.968Z,40.26
2024-02-19T05:42:11.476Z,40.26
2024-02-19T05:42:42.984Z,40.31
2024-02-19T05:43:14.495Z,40.37
2024-02-19T05:43:46.014Z,40.50
2024-02-19T05:44:17.496Z,40.43
2024-02-19T05:44:48.989Z,40.44
2024-02-19T05:45:20.538Z,40.43
2024-02-19T05:45:52.193Z,40.32
2024-02-19T05:46:23.949Z,40.61
2024-02-19T05:46:55.555Z,40.34
2024-02-19T05:47:27.015Z,40.49
2024-02-19T05:47:58.583Z,40.39
2024-02-19T05:48:30.083Z,40.43
2024-02-19T05:49:01.765Z,40.58
2024-02-19T05:49:33.385Z,40.46
2024-02-19T05:50:04.938Z,40.25
2024-02-19T05:50:36.449Z,40.31
2024-02-19T05:51:07.918Z,40.46
2024-02-19T05:51:39.398Z,40.35
2024-02-19T05:52:10.897Z,40.24
2024-02-19T05:52:42.380Z,40.35
2024-02-19T05:53:13.792Z,40.45
2024-02-19T05:53:45.325Z,40.38
2024-02-19T05:54:16.782Z,40.38
2024-02-19T05:54:48.326Z,40.30
2024-02-19T05:55:19.936Z,40.40
2024-02-19T05:55:51.494Z,40.25
2024-02-19T05:56:22.961Z,40.42
2024-02-19T05:56:54.467Z,40.42
2024-02-19T05:57:25.932Z,40.27
2024-02-19T05:57:57.415Z,40.49
2024-02-19T05:58:28.898Z,40.35
2024-02-19T05:59:00.361Z,40.38
2024-02-19T05:59:31.938Z,40.42
2024-02-19T06:00:03.409Z,40.37
2024-02-19T06:00:35.003Z,40.41
2024-02-19T06:01:06.626Z,40.45
2024-02-19T06:01:38.260Z,40.41
2024-02-19T06:02:09.911Z,40.40
2024-02-19T06:02:41.628Z,40.36
2024-02-19T06:03:13.151Z,40.35
2024-02-19T06:03:44.688Z,40.34
2024-02-19T06:04:16.243Z,40.47
2024-02-19T06:04:47.883Z,40.26
2024-02-19T06:05:19.522Z,40.44
2024-02-19T06:05:51.218Z,40.49
2024-02-19T06:06:22.747Z,40.43
2024-02-19T06:06:54.261Z,40.51
2024-02-19T06:07:25.778Z,40.27
2024-02-19T06:07:57.256Z,40.54
2024-02-19T06:08:28.724Z,40.37
2024-02-19T06:09:00.229Z,40.33
2024-02-19T06:09:31.687Z,40.38
2024-02-19T06:10:03.249Z,40.35
2024-02-19T06:10:34.774Z,40.46
2024-02-19T06:11:06.256Z,40.34
2024-02-19T06:11:37.793Z,40.53
2024-02-19T06:12:09.226Z,40.43
2024-02-19T06:12:40.820Z,40.46
2024-02-19T06:13:12.407Z,40.34
2024-02-19T06:13:43.904Z,40.34
2024-02-19T06:14:15.354Z,40.36
2024-02-19T06:14:46.771Z,40.32
2024-02-19T06:15:18.246Z,40.44
2024-02-19T06:15:49.712Z,40.44
2024-02-19T06:16:21.319Z,40.50
2024-02-19T06:16:52.834Z,40.43
2024-02-19T06:17:24.301Z,40.42
2024-02-19T06:17:55.904Z,40.47
2024-02-19T06:18:27.543Z,40.36
2024-02-19T06:18:59.194Z,40.52
2024-02-19T06:19:30.783Z,40.40
2024-02-19T06:20:02.424Z,40.39
2024-02-19T06:20:34.110Z,40.44
2024-02-19T06:21:05.666Z,40.36
2024-02-19T06:21:37.238Z,40.44
2024-02-19T06:22:08.909Z,40.40
2024-02-19T06:22:40.497Z,40.40
2024-02-19T06:23:11.963Z,40.48
2024-02-19T06:23:43.408Z,40.24
2024-02-19T06:24:14.956Z,40.49
2024-02-19T06:24:46.484Z,40.49
2024-02-19T06:25:18.337Z,40.31
2024-02-19T06:25:49.920Z,40.39
2024-02-19T06:26:21.416Z,40.44
2024-02-19T06:26:52.844Z,40.24
2024-02-19T06:27:27.250Z,40.46
2024-02-19T06:27:58.756Z,40.46
2024-02-19T06:28:30.218Z,40.33
2024-02-19T06:29:01.655Z,40.43
2024-02-19T06:29:33.154Z,40.40
2024-02-19T06:30:04.639Z,40.40
2024-02-19T06:30:36.082Z,40.29
2024-02-19T06:31:07.642Z,40.35
2024-02-19T06:31:39.123Z,40.36
2024-02-19T06:32:10.664Z,40.33
2024-02-19T06:32:42.145Z,40.31
2024-02-19T06:33:13.775Z,40.44
2024-02-19T06:33:45.432Z,40.40
2024-02-19T06:34:17.472Z,40.39
2024-02-19T06:34:49.199Z,40.41
2024-02-19T06:35:20.778Z,40.48
2024-02-19T06:35:55.016Z,40.37
2024-02-19T06:36:26.510Z,40.37
2024-02-19T06:36:58.023Z,40.29
2024-02-19T06:37:29.555Z,40.42
2024-02-19T06:38:01.016Z,40.50
2024-02-19T06:38:32.515Z,40.25
2024-02-19T06:39:04.032Z,40.39
2024-02-19T06:39:35.535Z,40.52
2024-02-19T06:40:06.983Z,40.51
2024-02-19T06:40:38.495Z,40.51
2024-02-19T06:41:10.035Z,40.33
2024-02-19T06:41:41.498Z,40.26
2024-02-19T06:42:12.946Z,40.45
2024-02-19T06:42:44.445Z,40.38
2024-02-19T06:43:16.006Z,40.38
2024-02-19T06:43:47.489Z,40.40
2024-02-19T06:44:18.985Z,40.42
2024-02-19T06:44:50.472Z,40.33
2024-02-19T06:45:22.008Z,40.53
2024-02-19T06:45:53.529Z,40.46
2024-02-19T06:46:25.174Z,40.43
2024-02-19T06:46:56.757Z,40.34